sensor_id;sensor_type;location;lat;lon;timestamp;temperature;humidity
12708;DHT22;6418;50.824;4.718;2024-01-06T00:01:04;6.80;99.90
12708;DHT22;6418;50.824;4.718;2024-01-06T00:03:31;6.80;99.90
12708;DHT22;6418;50.824;4.718;2024-01-06T00:05:58;6.80;99.90
12708;DHT22;6418;50.824;4.718;2024-01-06T00:08:26;6.80;99.90
12708;DHT22;6418;50.824;4.718;2024-01-06T00:10:54;6.80;99.90
12708;DHT22;6418;50.824;4.718;2024-01-06T00:13:21;6.80;99.90
12708;DHT22;6418;50.824;4.718;2024-01-06T00:15:50;6.80;99.90
12708;DHT22;6418;50.824;4.718;2024-01-06T00:18:17;6.80;99.90
12708;DHT22;6418;50.824;4.718;2024-01-06T00:20:44;6.80;99.90
12708;DHT22;6418;50.824;4.718;2024-01-06T00:23:11;6.80;99.90
12708;DHT22;6418;50.824;4.718;2024-01-06T00:25:38;6.80;99.90
12708;DHT22;6418;50.824;4.718;2024-01-06T00:28:05;6.80;99.90
12708;DHT22;6418;50.824;4.718;2024-01-06T00:30:32;6.80;99.90
12708;DHT22;6418;50.824;4.718;2024-01-06T00:33:01;6.80;99.90
12708;DHT22;6418;50.824;4.718;2024-01-06T00:35:27;6.70;99.90
12708;DHT22;6418;50.824;4.718;2024-01-06T00:37:54;6.80;99.90
12708;DHT22;6418;50.824;4.718;2024-01-06T00:40:22;6.70;99.90
12708;DHT22;6418;50.824;4.718;2024-01-06T00:42:49;6.70;99.90
12708;DHT22;6418;50.824;4.718;2024-01-06T00:45:16;6.70;99.90
12708;DHT22;6418;50.824;4.718;2024-01-06T00:47:41;6.70;99.90
12708;DHT22;6418;50.824;4.718;2024-01-06T00:50:10;6.70;99.90
12708;DHT22;6418;50.824;4.718;2024-01-06T00:52:37;6.70;99.90
12708;DHT22;6418;50.824;4.718;2024-01-06T00:55:04;6.70;99.90
12708;DHT22;6418;50.824;4.718;2024-01-06T00:57:34;6.70;99.90
12708;DHT22;6418;50.824;4.718;2024-01-06T01:00:03;6.70;99.90
12708;DHT22;6418;50.824;4.718;2024-01-06T01:02:31;6.70;99.90
12708;DHT22;6418;50.824;4.718;2024-01-06T01:04:58;6.70;99.90
12708;DHT22;6418;50.824;4.718;2024-01-06T01:07:27;6.70;99.90
12708;DHT22;6418;50.824;4.718;2024-01-06T01:09:54;6.70;99.90
12708;DHT22;6418;50.824;4.718;2024-01-06T01:12:22;6.70;99.90
12708;DHT22;6418;50.824;4.718;2024-01-06T01:14:49;6.70;99.90
12708;DHT22;6418;50.824;4.718;2024-01-06T01:17:16;6.70;99.90
12708;DHT22;6418;50.824;4.718;2024-01-06T01:19:43;6.70;99.90
12708;DHT22;6418;50.824;4.718;2024-01-06T01:22:10;6.70;99.90
12708;DHT22;6418;50.824;4.718;2024-01-06T01:24:38;6.70;99.90
12708;DHT22;6418;50.824;4.718;2024-01-06T01:27:05;6.70;99.90
12708;DHT22;6418;50.824;4.718;2024-01-06T01:29:32;6.70;99.90
12708;DHT22;6418;50.824;4.718;2024-01-06T01:31:59;6.70;99.90
12708;DHT22;6418;50.824;4.718;2024-01-06T01:34:26;6.70;99.90
12708;DHT22;6418;50.824;4.718;2024-01-06T01:36:53;6.70;99.90
12708;DHT22;6418;50.824;4.718;2024-01-06T01:39:21;6.70;99.90
12708;DHT22;6418;50.824;4.718;2024-01-06T01:41:49;6.70;99.90
12708;DHT22;6418;50.824;4.718;2024-01-06T01:44:16;6.70;99.90
12708;DHT22;6418;50.824;4.718;2024-01-06T01:46:43;6.70;99.90
12708;DHT22;6418;50.824;4.718;2024-01-06T01:49:11;6.70;99.90
12708;DHT22;6418;50.824;4.718;2024-01-06T01:51:38;6.60;99.90
12708;DHT22;6418;50.824;4.718;2024-01-06T01:54:06;6.60;99.90
12708;DHT22;6418;50.824;4.718;2024-01-06T01:56:34;6.60;99.90
12708;DHT22;6418;50.824;4.718;2024-01-06T01:59:06;6.60;99.90
12708;DHT22;6418;50.824;4.718;2024-01-06T02:01:36;6.60;99.90
12708;DHT22;6418;50.824;4.718;2024-01-06T02:04:03;6.60;99.90
12708;DHT22;6418;50.824;4.718;2024-01-06T02:06:30;6.60;99.90
12708;DHT22;6418;50.824;4.718;2024-01-06T02:08:57;6.60;99.90
12708;DHT22;6418;50.824;4.718;2024-01-06T02:11:24;6.60;99.90
12708;DHT22;6418;50.824;4.718;2024-01-06T02:13:51;6.60;99.90
12708;DHT22;6418;50.824;4.718;2024-01-06T02:16:20;6.60;99.90
12708;DHT22;6418;50.824;4.718;2024-01-06T02:18:47;6.60;99.90
12708;DHT22;6418;50.824;4.718;2024-01-06T02:21:15;6.60;99.90
12708;DHT22;6418;50.824;4.718;2024-01-06T02:23:43;6.60;99.90
12708;DHT22;6418;50.824;4.718;2024-01-06T02:26:11;6.60;99.90
12708;DHT22;6418;50.824;4.718;2024-01-06T02:28:38;6.60;99.90
12708;DHT22;6418;50.824;4.718;2024-01-06T02:31:05;6.60;99.90
12708;DHT22;6418;50.824;4.718;2024-01-06T02:33:32;6.60;99.90
12708;DHT22;6418;50.824;4.718;2024-01-06T02:35:59;6.60;99.90
12708;DHT22;6418;50.824;4.718;2024-01-06T02:38:26;6.60;99.90
12708;DHT22;6418;50.824;4.718;2024-01-06T02:40:55;6.60;99.90
12708;DHT22;6418;50.824;4.718;2024-01-06T02:43:22;6.60;99.90
12708;DHT22;6418;50.824;4.718;2024-01-06T02:45:49;6.60;99.90
12708;DHT22;6418;50.824;4.718;2024-01-06T02:48:16;6.60;99.90
12708;DHT22;6418;50.824;4.718;2024-01-06T02:50:43;6.60;99.90
12708;DHT22;6418;50.824;4.718;2024-01-06T02:53:10;6.60;99.90
12708;DHT22;6418;50.824;4.718;2024-01-06T02:55:38;6.60;99.90
12708;DHT22;6418;50.824;4.718;2024-01-06T02:58:06;6.60;99.90
12708;DHT22;6418;50.824;4.718;2024-01-06T03:00:33;6.60;99.90
12708;DHT22;6418;50.824;4.718;2024-01-06T03:03:00;6.60;99.90
12708;DHT22;6418;50.824;4.718;2024-01-06T03:05:28;6.60;99.90
12708;DHT22;6418;50.824;4.718;2024-01-06T03:07:55;6.60;99.90
12708;DHT22;6418;50.824;4.718;2024-01-06T03:10:22;6.60;99.90
12708;DHT22;6418;50.824;4.718;2024-01-06T03:12:49;6.60;99.90
12708;DHT22;6418;50.824;4.718;2024-01-06T03:15:17;6.60;99.90
12708;DHT22;6418;50.824;4.718;2024-01-06T03:17:44;6.60;99.90
12708;DHT22;6418;50.824;4.718;2024-01-06T03:20:11;6.60;99.90
12708;DHT22;6418;50.824;4.718;2024-01-06T03:22:38;6.70;99.90
12708;DHT22;6418;50.824;4.718;2024-01-06T03:25:05;6.70;99.90
12708;DHT22;6418;50.824;4.718;2024-01-06T03:27:33;6.60;99.90
12708;DHT22;6418;50.824;4.718;2024-01-06T03:30:00;6.60;99.90
12708;DHT22;6418;50.824;4.718;2024-01-06T03:32:28;6.60;99.90
12708;DHT22;6418;50.824;4.718;2024-01-06T03:34:55;6.60;99.90
12708;DHT22;6418;50.824;4.718;2024-01-06T03:37:22;6.60;99.90
12708;DHT22;6418;50.824;4.718;2024-01-06T03:39:50;6.60;99.90
12708;DHT22;6418;50.824;4.718;2024-01-06T03:42:16;6.60;99.90
12708;DHT22;6418;50.824;4.718;2024-01-06T03:44:43;6.60;99.90
12708;DHT22;6418;50.824;4.718;2024-01-06T03:47:11;6.60;99.90
12708;DHT22;6418;50.824;4.718;2024-01-06T03:49:39;6.60;99.90
12708;DHT22;6418;50.824;4.718;2024-01-06T03:52:06;6.60;99.90
12708;DHT22;6418;50.824;4.718;2024-01-06T03:54:33;6.50;99.90
12708;DHT22;6418;50.824;4.718;2024-01-06T03:57:00;6.50;99.90
12708;DHT22;6418;50.824;4.718;2024-01-06T03:59:27;6.50;99.90
12708;DHT22;6418;50.824;4.718;2024-01-06T04:01:54;6.60;99.90
12708;DHT22;6418;50.824;4.718;2024-01-06T04:04:21;6.50;99.90
12708;DHT22;6418;50.824;4.718;2024-01-06T04:06:49;6.60;99.90
12708;DHT22;6418;50.824;4.718;2024-01-06T04:09:16;6.50;99.90
12708;DHT22;6418;50.824;4.718;2024-01-06T04:11:43;6.50;99.90
12708;DHT22;6418;50.824;4.718;2024-01-06T04:14:10;6.40;99.90
12708;DHT22;6418;50.824;4.718;2024-01-06T04:16:38;6.50;99.90
12708;DHT22;6418;50.824;4.718;2024-01-06T04:19:04;6.50;99.90
12708;DHT22;6418;50.824;4.718;2024-01-06T04:21:33;6.40;99.90
12708;DHT22;6418;50.824;4.718;2024-01-06T04:24:01;6.40;99.90
12708;DHT22;6418;50.824;4.718;2024-01-06T04:26:28;6.40;99.90
12708;DHT22;6418;50.824;4.718;2024-01-06T04:28:55;6.30;99.90
12708;DHT22;6418;50.824;4.718;2024-01-06T04:31:22;6.30;99.90
12708;DHT22;6418;50.824;4.718;2024-01-06T04:33:49;6.30;99.90
12708;DHT22;6418;50.824;4.718;2024-01-06T04:36:16;6.30;99.90
12708;DHT22;6418;50.824;4.718;2024-01-06T04:38:43;6.30;99.90
12708;DHT22;6418;50.824;4.718;2024-01-06T04:41:11;6.20;99.90
12708;DHT22;6418;50.824;4.718;2024-01-06T04:43:38;6.20;99.90
12708;DHT22;6418;50.824;4.718;2024-01-06T04:46:05;6.20;99.90
12708;DHT22;6418;50.824;4.718;2024-01-06T04:48:32;6.20;99.90
12708;DHT22;6418;50.824;4.718;2024-01-06T04:50:59;6.20;99.90
12708;DHT22;6418;50.824;4.718;2024-01-06T04:53:28;6.20;99.90
12708;DHT22;6418;50.824;4.718;2024-01-06T04:55:55;6.10;99.90
12708;DHT22;6418;50.824;4.718;2024-01-06T04:58:24;6.10;99.90
12708;DHT22;6418;50.824;4.718;2024-01-06T05:00:51;6.10;99.90
12708;DHT22;6418;50.824;4.718;2024-01-06T05:03:18;6.10;99.90
12708;DHT22;6418;50.824;4.718;2024-01-06T05:05:45;6.00;99.90
12708;DHT22;6418;50.824;4.718;2024-01-06T05:08:12;6.00;99.90
12708;DHT22;6418;50.824;4.718;2024-01-06T05:10:39;6.00;99.90
12708;DHT22;6418;50.824;4.718;2024-01-06T05:13:06;6.00;99.90
12708;DHT22;6418;50.824;4.718;2024-01-06T05:15:34;6.00;99.90
12708;DHT22;6418;50.824;4.718;2024-01-06T05:18:02;6.00;99.90
12708;DHT22;6418;50.824;4.718;2024-01-06T05:20:29;6.00;99.90
12708;DHT22;6418;50.824;4.718;2024-01-06T05:22:55;5.90;99.90
12708;DHT22;6418;50.824;4.718;2024-01-06T05:25:22;6.00;99.90
12708;DHT22;6418;50.824;4.718;2024-01-06T05:27:49;6.00;99.90
12708;DHT22;6418;50.824;4.718;2024-01-06T05:30:17;5.90;99.90
12708;DHT22;6418;50.824;4.718;2024-01-06T05:32:45;5.90;99.90
12708;DHT22;6418;50.824;4.718;2024-01-06T05:35:12;5.90;99.90
12708;DHT22;6418;50.824;4.718;2024-01-06T05:37:40;5.90;99.90
12708;DHT22;6418;50.824;4.718;2024-01-06T05:40:08;5.90;99.90
12708;DHT22;6418;50.824;4.718;2024-01-06T05:42:35;5.90;99.90
12708;DHT22;6418;50.824;4.718;2024-01-06T05:45:02;5.80;99.90
12708;DHT22;6418;50.824;4.718;2024-01-06T05:47:30;5.80;99.90
12708;DHT22;6418;50.824;4.718;2024-01-06T05:49:59;5.80;99.90
12708;DHT22;6418;50.824;4.718;2024-01-06T05:52:26;5.80;99.90
12708;DHT22;6418;50.824;4.718;2024-01-06T05:54:53;5.80;99.90
12708;DHT22;6418;50.824;4.718;2024-01-06T05:57:20;5.80;99.90
12708;DHT22;6418;50.824;4.718;2024-01-06T05:59:47;5.80;99.90
12708;DHT22;6418;50.824;4.718;2024-01-06T06:02:14;5.80;99.90
12708;DHT22;6418;50.824;4.718;2024-01-06T06:04:41;5.80;99.90
12708;DHT22;6418;50.824;4.718;2024-01-06T06:07:09;5.80;99.90
12708;DHT22;6418;50.824;4.718;2024-01-06T06:09:36;5.80;99.90
12708;DHT22;6418;50.824;4.718;2024-01-06T06:12:06;5.80;99.90
12708;DHT22;6418;50.824;4.718;2024-01-06T06:14:33;5.80;99.90
12708;DHT22;6418;50.824;4.718;2024-01-06T06:17:00;5.80;99.90
12708;DHT22;6418;50.824;4.718;2024-01-06T06:19:27;5.70;99.90
12708;DHT22;6418;50.824;4.718;2024-01-06T06:21:54;5.80;99.90
12708;DHT22;6418;50.824;4.718;2024-01-06T06:24:22;5.80;99.90
12708;DHT22;6418;50.824;4.718;2024-01-06T06:26:49;5.70;99.90
12708;DHT22;6418;50.824;4.718;2024-01-06T06:29:16;5.80;99.90
12708;DHT22;6418;50.824;4.718;2024-01-06T06:31:43;5.70;99.90
12708;DHT22;6418;50.824;4.718;2024-01-06T06:34:12;5.70;99.90
12708;DHT22;6418;50.824;4.718;2024-01-06T06:36:39;5.70;99.90
12708;DHT22;6418;50.824;4.718;2024-01-06T06:39:06;5.60;99.90
12708;DHT22;6418;50.824;4.718;2024-01-06T06:41:34;5.60;99.90
12708;DHT22;6418;50.824;4.718;2024-01-06T06:44:01;5.60;99.90
12708;DHT22;6418;50.824;4.718;2024-01-06T06:46:28;5.50;99.90
12708;DHT22;6418;50.824;4.718;2024-01-06T06:48:55;5.40;99.90
12708;DHT22;6418;50.824;4.718;2024-01-06T06:51:22;5.40;99.90
12708;DHT22;6418;50.824;4.718;2024-01-06T06:53:52;5.40;99.90
12708;DHT22;6418;50.824;4.718;2024-01-06T06:56:19;5.30;99.90
12708;DHT22;6418;50.824;4.718;2024-01-06T06:58:47;5.30;99.90
12708;DHT22;6418;50.824;4.718;2024-01-06T07:01:14;5.30;99.90
12708;DHT22;6418;50.824;4.718;2024-01-06T07:03:41;5.30;99.90
12708;DHT22;6418;50.824;4.718;2024-01-06T07:06:11;5.20;99.90
12708;DHT22;6418;50.824;4.718;2024-01-06T07:08:38;5.20;99.90
12708;DHT22;6418;50.824;4.718;2024-01-06T07:11:06;5.20;99.90
12708;DHT22;6418;50.824;4.718;2024-01-06T07:13:33;5.10;99.90
12708;DHT22;6418;50.824;4.718;2024-01-06T07:16:01;5.10;99.90
12708;DHT22;6418;50.824;4.718;2024-01-06T07:18:28;5.10;99.90
12708;DHT22;6418;50.824;4.718;2024-01-06T07:20:55;5.10;99.90
12708;DHT22;6418;50.824;4.718;2024-01-06T07:23:22;5.10;99.90
12708;DHT22;6418;50.824;4.718;2024-01-06T07:25:49;5.10;99.90
12708;DHT22;6418;50.824;4.718;2024-01-06T07:28:16;5.10;99.90
12708;DHT22;6418;50.824;4.718;2024-01-06T07:30:43;5.00;99.90
12708;DHT22;6418;50.824;4.718;2024-01-06T07:33:13;5.10;99.90
12708;DHT22;6418;50.824;4.718;2024-01-06T07:35:40;5.00;99.90
12708;DHT22;6418;50.824;4.718;2024-01-06T07:38:09;5.10;99.90
12708;DHT22;6418;50.824;4.718;2024-01-06T07:40:36;5.00;99.90
12708;DHT22;6418;50.824;4.718;2024-01-06T07:43:04;5.00;99.90
12708;DHT22;6418;50.824;4.718;2024-01-06T07:45:31;5.00;99.90
12708;DHT22;6418;50.824;4.718;2024-01-06T07:47:58;5.00;99.90
12708;DHT22;6418;50.824;4.718;2024-01-06T07:50:27;5.00;99.90
12708;DHT22;6418;50.824;4.718;2024-01-06T07:52:54;4.90;99.90
12708;DHT22;6418;50.824;4.718;2024-01-06T07:55:21;4.90;99.90
12708;DHT22;6418;50.824;4.718;2024-01-06T07:57:48;5.00;99.90
12708;DHT22;6418;50.824;4.718;2024-01-06T08:00:16;5.00;99.90
12708;DHT22;6418;50.824;4.718;2024-01-06T08:02:43;5.00;99.90
12708;DHT22;6418;50.824;4.718;2024-01-06T08:05:10;5.00;99.90
12708;DHT22;6418;50.824;4.718;2024-01-06T08:07:38;5.00;99.90
12708;DHT22;6418;50.824;4.718;2024-01-06T08:10:06;5.00;99.90
12708;DHT22;6418;50.824;4.718;2024-01-06T08:12:34;5.00;99.90
12708;DHT22;6418;50.824;4.718;2024-01-06T08:15:01;4.90;99.90
12708;DHT22;6418;50.824;4.718;2024-01-06T08:17:29;4.90;99.90
12708;DHT22;6418;50.824;4.718;2024-01-06T08:19:56;4.90;99.90
12708;DHT22;6418;50.824;4.718;2024-01-06T08:22:23;4.90;99.90
12708;DHT22;6418;50.824;4.718;2024-01-06T08:24:51;4.90;99.90
12708;DHT22;6418;50.824;4.718;2024-01-06T08:27:18;4.90;99.90
12708;DHT22;6418;50.824;4.718;2024-01-06T08:29:45;4.80;99.90
12708;DHT22;6418;50.824;4.718;2024-01-06T08:32:12;4.80;99.90
12708;DHT22;6418;50.824;4.718;2024-01-06T08:34:40;4.80;99.90
12708;DHT22;6418;50.824;4.718;2024-01-06T08:37:07;4.90;99.90
12708;DHT22;6418;50.824;4.718;2024-01-06T08:39:34;4.90;99.90
12708;DHT22;6418;50.824;4.718;2024-01-06T08:42:03;4.90;99.90
12708;DHT22;6418;50.824;4.718;2024-01-06T08:44:30;4.90;99.90
12708;DHT22;6418;50.824;4.718;2024-01-06T08:46:57;4.90;99.90
12708;DHT22;6418;50.824;4.718;2024-01-06T08:49:24;4.90;99.90
12708;DHT22;6418;50.824;4.718;2024-01-06T08:51:51;4.90;99.90
12708;DHT22;6418;50.824;4.718;2024-01-06T08:54:18;4.90;99.90
12708;DHT22;6418;50.824;4.718;2024-01-06T08:56:45;4.90;99.90
12708;DHT22;6418;50.824;4.718;2024-01-06T08:59:14;4.90;99.90
12708;DHT22;6418;50.824;4.718;2024-01-06T09:01:41;4.90;99.90
12708;DHT22;6418;50.824;4.718;2024-01-06T09:04:08;4.90;99.90
12708;DHT22;6418;50.824;4.718;2024-01-06T09:06:37;4.90;99.90
12708;DHT22;6418;50.824;4.718;2024-01-06T09:09:03;4.90;99.90
12708;DHT22;6418;50.824;4.718;2024-01-06T09:11:31;5.00;99.90
12708;DHT22;6418;50.824;4.718;2024-01-06T09:13:58;4.90;99.90
12708;DHT22;6418;50.824;4.718;2024-01-06T09:16:27;4.90;99.90
12708;DHT22;6418;50.824;4.718;2024-01-06T09:18:54;4.90;99.90
12708;DHT22;6418;50.824;4.718;2024-01-06T09:21:21;4.90;99.90
12708;DHT22;6418;50.824;4.718;2024-01-06T09:23:48;4.90;99.90
12708;DHT22;6418;50.824;4.718;2024-01-06T09:26:15;4.90;99.90
12708;DHT22;6418;50.824;4.718;2024-01-06T09:28:42;4.90;99.90
12708;DHT22;6418;50.824;4.718;2024-01-06T09:31:09;4.90;99.90
12708;DHT22;6418;50.824;4.718;2024-01-06T09:33:38;4.90;99.90
12708;DHT22;6418;50.824;4.718;2024-01-06T09:36:05;4.90;99.90
12708;DHT22;6418;50.824;4.718;2024-01-06T09:38:34;4.90;99.90
12708;DHT22;6418;50.824;4.718;2024-01-06T09:41:01;4.80;99.90
12708;DHT22;6418;50.824;4.718;2024-01-06T09:43:28;4.80;99.90
12708;DHT22;6418;50.824;4.718;2024-01-06T09:46:01;4.80;99.90
12708;DHT22;6418;50.824;4.718;2024-01-06T09:48:29;4.80;99.90
12708;DHT22;6418;50.824;4.718;2024-01-06T09:51:02;4.80;99.90
12708;DHT22;6418;50.824;4.718;2024-01-06T09:53:34;4.90;99.90
12708;DHT22;6418;50.824;4.718;2024-01-06T09:56:03;4.90;99.90
12708;DHT22;6418;50.824;4.718;2024-01-06T09:58:31;4.80;99.90
12708;DHT22;6418;50.824;4.718;2024-01-06T10:01:00;4.90;99.90
12708;DHT22;6418;50.824;4.718;2024-01-06T10:03:28;4.90;99.90
12708;DHT22;6418;50.824;4.718;2024-01-06T10:05:55;5.00;99.90
12708;DHT22;6418;50.824;4.718;2024-01-06T10:08:27;5.00;99.90
12708;DHT22;6418;50.824;4.718;2024-01-06T10:10:54;4.90;99.90
12708;DHT22;6418;50.824;4.718;2024-01-06T10:13:21;4.90;99.90
12708;DHT22;6418;50.824;4.718;2024-01-06T10:15:50;4.90;99.90
12708;DHT22;6418;50.824;4.718;2024-01-06T10:18:18;4.80;99.90
12708;DHT22;6418;50.824;4.718;2024-01-06T10:20:45;4.80;99.90
12708;DHT22;6418;50.824;4.718;2024-01-06T10:23:13;4.80;99.90
12708;DHT22;6418;50.824;4.718;2024-01-06T10:25:41;4.70;99.90
12708;DHT22;6418;50.824;4.718;2024-01-06T10:28:11;4.70;99.90
12708;DHT22;6418;50.824;4.718;2024-01-06T10:30:39;4.70;99.90
12708;DHT22;6418;50.824;4.718;2024-01-06T10:33:08;4.70;99.90
12708;DHT22;6418;50.824;4.718;2024-01-06T10:35:36;4.70;99.90
12708;DHT22;6418;50.824;4.718;2024-01-06T10:38:03;4.60;99.90
12708;DHT22;6418;50.824;4.718;2024-01-06T10:40:31;4.60;99.90
12708;DHT22;6418;50.824;4.718;2024-01-06T10:43:00;4.60;99.90
12708;DHT22;6418;50.824;4.718;2024-01-06T10:45:28;4.60;99.90
12708;DHT22;6418;50.824;4.718;2024-01-06T10:47:57;4.50;99.90
12708;DHT22;6418;50.824;4.718;2024-01-06T10:50:24;4.50;99.90
12708;DHT22;6418;50.824;4.718;2024-01-06T10:52:53;4.50;99.90
12708;DHT22;6418;50.824;4.718;2024-01-06T10:55:23;4.50;99.90
12708;DHT22;6418;50.824;4.718;2024-01-06T10:57:51;4.50;99.90
12708;DHT22;6418;50.824;4.718;2024-01-06T11:00:20;4.40;99.90
12708;DHT22;6418;50.824;4.718;2024-01-06T11:02:48;4.40;99.90
12708;DHT22;6418;50.824;4.718;2024-01-06T11:05:19;4.40;99.90
12708;DHT22;6418;50.824;4.718;2024-01-06T11:07:47;4.50;99.90
12708;DHT22;6418;50.824;4.718;2024-01-06T11:10:18;4.50;99.90
12708;DHT22;6418;50.824;4.718;2024-01-06T11:13:07;4.50;99.90
12708;DHT22;6418;50.824;4.718;2024-01-06T11:15:47;4.40;99.90
12708;DHT22;6418;50.824;4.718;2024-01-06T11:18:33;4.40;99.90
12708;DHT22;6418;50.824;4.718;2024-01-06T11:21:17;4.40;99.90
12708;DHT22;6418;50.824;4.718;2024-01-06T11:23:45;4.30;99.90
12708;DHT22;6418;50.824;4.718;2024-01-06T11:26:13;4.40;99.90
12708;DHT22;6418;50.824;4.718;2024-01-06T11:28:44;4.30;99.90
12708;DHT22;6418;50.824;4.718;2024-01-06T11:31:13;4.30;99.90
12708;DHT22;6418;50.824;4.718;2024-01-06T11:33:42;4.30;99.90
12708;DHT22;6418;50.824;4.718;2024-01-06T11:36:09;4.20;99.90
12708;DHT22;6418;50.824;4.718;2024-01-06T11:38:38;4.20;99.90
12708;DHT22;6418;50.824;4.718;2024-01-06T11:41:06;4.20;99.90
12708;DHT22;6418;50.824;4.718;2024-01-06T11:43:34;4.20;99.90
12708;DHT22;6418;50.824;4.718;2024-01-06T11:46:03;4.20;99.90
12708;DHT22;6418;50.824;4.718;2024-01-06T11:48:34;4.20;99.90
12708;DHT22;6418;50.824;4.718;2024-01-06T11:51:03;4.20;99.90
12708;DHT22;6418;50.824;4.718;2024-01-06T11:53:31;4.20;99.90
12708;DHT22;6418;50.824;4.718;2024-01-06T11:55:59;4.20;99.90
12708;DHT22;6418;50.824;4.718;2024-01-06T11:58:27;4.20;99.90
12708;DHT22;6418;50.824;4.718;2024-01-06T12:00:56;4.20;99.90
12708;DHT22;6418;50.824;4.718;2024-01-06T12:03:23;4.20;99.90
12708;DHT22;6418;50.824;4.718;2024-01-06T12:06:01;4.20;99.90
12708;DHT22;6418;50.824;4.718;2024-01-06T12:08:28;4.30;99.90
12708;DHT22;6418;50.824;4.718;2024-01-06T12:11:02;4.30;99.90
12708;DHT22;6418;50.824;4.718;2024-01-06T12:13:29;4.20;99.90
12708;DHT22;6418;50.824;4.718;2024-01-06T12:15:56;4.20;99.90
12708;DHT22;6418;50.824;4.718;2024-01-06T12:18:25;4.20;99.90
12708;DHT22;6418;50.824;4.718;2024-01-06T12:20:52;4.20;99.90
12708;DHT22;6418;50.824;4.718;2024-01-06T12:23:27;4.20;99.90
12708;DHT22;6418;50.824;4.718;2024-01-06T12:25:54;4.20;99.90
12708;DHT22;6418;50.824;4.718;2024-01-06T12:28:22;4.20;99.90
12708;DHT22;6418;50.824;4.718;2024-01-06T12:30:49;4.20;99.90
12708;DHT22;6418;50.824;4.718;2024-01-06T12:33:16;4.20;99.90
12708;DHT22;6418;50.824;4.718;2024-01-06T12:35:43;4.20;99.90
12708;DHT22;6418;50.824;4.718;2024-01-06T12:38:10;4.20;99.90
12708;DHT22;6418;50.824;4.718;2024-01-06T12:40:39;4.20;99.90
12708;DHT22;6418;50.824;4.718;2024-01-06T12:43:06;4.30;99.90
12708;DHT22;6418;50.824;4.718;2024-01-06T12:45:33;4.30;99.90
12708;DHT22;6418;50.824;4.718;2024-01-06T12:48:00;4.30;99.90
12708;DHT22;6418;50.824;4.718;2024-01-06T12:50:27;4.30;99.90
12708;DHT22;6418;50.824;4.718;2024-01-06T12:52:54;4.30;99.90
12708;DHT22;6418;50.824;4.718;2024-01-06T12:55:21;4.30;99.90
12708;DHT22;6418;50.824;4.718;2024-01-06T12:57:50;4.20;99.90
12708;DHT22;6418;50.824;4.718;2024-01-06T13:00:17;4.20;99.90
12708;DHT22;6418;50.824;4.718;2024-01-06T13:02:44;4.20;99.90
12708;DHT22;6418;50.824;4.718;2024-01-06T13:05:11;4.20;99.90
12708;DHT22;6418;50.824;4.718;2024-01-06T13:07:39;4.20;99.90
12708;DHT22;6418;50.824;4.718;2024-01-06T13:10:07;4.20;99.90
12708;DHT22;6418;50.824;4.718;2024-01-06T13:12:34;4.20;99.90
12708;DHT22;6418;50.824;4.718;2024-01-06T13:15:02;4.30;99.90
12708;DHT22;6418;50.824;4.718;2024-01-06T13:17:29;4.30;99.90
12708;DHT22;6418;50.824;4.718;2024-01-06T13:19:56;4.20;99.90
12708;DHT22;6418;50.824;4.718;2024-01-06T13:22:23;4.20;99.90
12708;DHT22;6418;50.824;4.718;2024-01-06T13:24:51;4.20;99.90
12708;DHT22;6418;50.824;4.718;2024-01-06T13:27:18;4.20;99.90
12708;DHT22;6418;50.824;4.718;2024-01-06T13:29:45;4.20;99.90
12708;DHT22;6418;50.824;4.718;2024-01-06T13:32:14;4.10;99.90
12708;DHT22;6418;50.824;4.718;2024-01-06T13:34:41;4.10;99.90
12708;DHT22;6418;50.824;4.718;2024-01-06T13:37:08;4.10;99.90
12708;DHT22;6418;50.824;4.718;2024-01-06T13:39:35;4.20;99.90
12708;DHT22;6418;50.824;4.718;2024-01-06T13:42:02;4.20;99.90
12708;DHT22;6418;50.824;4.718;2024-01-06T13:44:30;4.20;99.90
12708;DHT22;6418;50.824;4.718;2024-01-06T13:46:57;4.20;99.90
12708;DHT22;6418;50.824;4.718;2024-01-06T13:49:25;4.10;99.90
12708;DHT22;6418;50.824;4.718;2024-01-06T13:51:53;4.20;99.90
12708;DHT22;6418;50.824;4.718;2024-01-06T13:54:20;4.20;99.90
12708;DHT22;6418;50.824;4.718;2024-01-06T13:56:47;4.20;99.90
12708;DHT22;6418;50.824;4.718;2024-01-06T13:59:14;4.20;99.90
12708;DHT22;6418;50.824;4.718;2024-01-06T14:01:42;4.10;99.90
12708;DHT22;6418;50.824;4.718;2024-01-06T14:04:09;4.10;99.90
12708;DHT22;6418;50.824;4.718;2024-01-06T14:06:37;4.10;99.90
12708;DHT22;6418;50.824;4.718;2024-01-06T14:09:05;4.10;99.90
12708;DHT22;6418;50.824;4.718;2024-01-06T14:11:32;4.10;99.90
12708;DHT22;6418;50.824;4.718;2024-01-06T14:14:00;4.10;99.90
12708;DHT22;6418;50.824;4.718;2024-01-06T14:16:27;4.10;99.90
12708;DHT22;6418;50.824;4.718;2024-01-06T14:18:54;4.10;99.90
12708;DHT22;6418;50.824;4.718;2024-01-06T14:21:21;4.10;99.90
12708;DHT22;6418;50.824;4.718;2024-01-06T14:23:49;4.10;99.90
12708;DHT22;6418;50.824;4.718;2024-01-06T14:26:17;4.10;99.90
12708;DHT22;6418;50.824;4.718;2024-01-06T14:28:45;4.10;99.90
12708;DHT22;6418;50.824;4.718;2024-01-06T14:31:12;4.00;99.90
12708;DHT22;6418;50.824;4.718;2024-01-06T14:33:39;4.10;99.90
12708;DHT22;6418;50.824;4.718;2024-01-06T14:36:07;4.10;99.90
12708;DHT22;6418;50.824;4.718;2024-01-06T14:38:34;4.10;99.90
12708;DHT22;6418;50.824;4.718;2024-01-06T14:41:03;4.00;99.90
12708;DHT22;6418;50.824;4.718;2024-01-06T14:43:30;4.00;99.90
12708;DHT22;6418;50.824;4.718;2024-01-06T14:45:57;4.00;99.90
12708;DHT22;6418;50.824;4.718;2024-01-06T14:48:24;4.00;99.90
12708;DHT22;6418;50.824;4.718;2024-01-06T14:50:51;4.00;99.90
12708;DHT22;6418;50.824;4.718;2024-01-06T14:53:18;4.00;99.90
12708;DHT22;6418;50.824;4.718;2024-01-06T14:55:45;4.00;99.90
12708;DHT22;6418;50.824;4.718;2024-01-06T14:58:13;4.00;99.90
12708;DHT22;6418;50.824;4.718;2024-01-06T15:00:40;4.00;99.90
12708;DHT22;6418;50.824;4.718;2024-01-06T15:03:07;4.00;99.90
12708;DHT22;6418;50.824;4.718;2024-01-06T15:05:34;4.00;99.90
12708;DHT22;6418;50.824;4.718;2024-01-06T15:08:01;4.00;99.90
12708;DHT22;6418;50.824;4.718;2024-01-06T15:10:28;4.00;99.90
12708;DHT22;6418;50.824;4.718;2024-01-06T15:12:55;3.90;99.90
12708;DHT22;6418;50.824;4.718;2024-01-06T15:15:23;3.90;99.90
12708;DHT22;6418;50.824;4.718;2024-01-06T15:17:50;3.90;99.90
12708;DHT22;6418;50.824;4.718;2024-01-06T15:20:17;3.90;99.90
12708;DHT22;6418;50.824;4.718;2024-01-06T15:22:44;4.00;99.90
12708;DHT22;6418;50.824;4.718;2024-01-06T15:25:11;4.00;99.90
12708;DHT22;6418;50.824;4.718;2024-01-06T15:27:38;3.90;99.90
12708;DHT22;6418;50.824;4.718;2024-01-06T15:30:06;3.90;99.90
12708;DHT22;6418;50.824;4.718;2024-01-06T15:32:36;3.90;99.90
12708;DHT22;6418;50.824;4.718;2024-01-06T15:35:04;3.90;99.90
12708;DHT22;6418;50.824;4.718;2024-01-06T15:37:31;3.90;99.90
12708;DHT22;6418;50.824;4.718;2024-01-06T15:39:58;3.90;99.90
12708;DHT22;6418;50.824;4.718;2024-01-06T15:42:26;3.90;99.90
12708;DHT22;6418;50.824;4.718;2024-01-06T15:44:53;3.90;99.90
12708;DHT22;6418;50.824;4.718;2024-01-06T15:47:20;3.90;99.90
12708;DHT22;6418;50.824;4.718;2024-01-06T15:49:48;3.90;99.90
12708;DHT22;6418;50.824;4.718;2024-01-06T15:52:15;3.90;99.90
12708;DHT22;6418;50.824;4.718;2024-01-06T15:54:47;3.80;99.90
12708;DHT22;6418;50.824;4.718;2024-01-06T15:57:14;3.90;99.90
12708;DHT22;6418;50.824;4.718;2024-01-06T15:59:41;3.90;99.90
12708;DHT22;6418;50.824;4.718;2024-01-06T16:02:08;3.90;99.90
12708;DHT22;6418;50.824;4.718;2024-01-06T16:04:35;3.90;99.90